sensor_id;sensor_type;location;lat;lon;timestamp;temperature;humidity
54168;DHT22;40072;50.958;3.592;2022-10-14T00:00:15;14.60;99.90
54168;DHT22;40072;50.958;3.592;2022-10-14T00:02:40;14.50;99.90
54168;DHT22;40072;50.958;3.592;2022-10-14T00:05:06;14.50;99.90
54168;DHT22;40072;50.958;3.592;2022-10-14T00:07:34;14.60;99.90
54168;DHT22;40072;50.958;3.592;2022-10-14T00:10:00;14.60;99.90
54168;DHT22;40072;50.958;3.592;2022-10-14T00:12:25;14.50;99.90
54168;DHT22;40072;50.958;3.592;2022-10-14T00:14:51;14.50;99.90
54168;DHT22;40072;50.958;3.592;2022-10-14T00:17:16;14.50;99.90
54168;DHT22;40072;50.958;3.592;2022-10-14T00:19:42;14.50;99.90
54168;DHT22;40072;50.958;3.592;2022-10-14T00:22:07;14.50;99.90
54168;DHT22;40072;50.958;3.592;2022-10-14T00:24:33;14.50;99.90
54168;DHT22;40072;50.958;3.592;2022-10-14T00:26:59;14.50;99.90
54168;DHT22;40072;50.958;3.592;2022-10-14T00:29:24;14.50;99.90
54168;DHT22;40072;50.958;3.592;2022-10-14T00:31:50;14.40;99.90
54168;DHT22;40072;50.958;3.592;2022-10-14T00:34:16;14.40;99.90
54168;DHT22;40072;50.958;3.592;2022-10-14T00:36:42;14.40;99.90
54168;DHT22;40072;50.958;3.592;2022-10-14T00:39:08;14.30;99.90
54168;DHT22;40072;50.958;3.592;2022-10-14T00:41:34;14.30;99.90
54168;DHT22;40072;50.958;3.592;2022-10-14T00:46:42;14.30;99.90
54168;DHT22;40072;50.958;3.592;2022-10-14T00:51:45;14.30;99.90
54168;DHT22;40072;50.958;3.592;2022-10-14T00:54:15;14.30;99.90
54168;DHT22;40072;50.958;3.592;2022-10-14T00:56:43;14.30;99.90
54168;DHT22;40072;50.958;3.592;2022-10-14T00:59:09;14.30;99.90
54168;DHT22;40072;50.958;3.592;2022-10-14T01:01:36;14.30;99.90
54168;DHT22;40072;50.958;3.592;2022-10-14T01:04:02;14.30;99.90
54168;DHT22;40072;50.958;3.592;2022-10-14T01:21:20;14.40;99.90
54168;DHT22;40072;50.958;3.592;2022-10-14T01:32:15;14.30;99.90
54168;DHT22;40072;50.958;3.592;2022-10-14T01:34:54;14.30;99.90
54168;DHT22;40072;50.958;3.592;2022-10-14T01:37:25;14.30;99.90
54168;DHT22;40072;50.958;3.592;2022-10-14T01:40:11;14.30;99.90
54168;DHT22;40072;50.958;3.592;2022-10-14T01:42:40;14.30;99.90
54168;DHT22;40072;50.958;3.592;2022-10-14T01:45:20;14.30;99.90
54168;DHT22;40072;50.958;3.592;2022-10-14T01:47:50;14.30;99.90
54168;DHT22;40072;50.958;3.592;2022-10-14T01:50:20;14.40;99.90
54168;DHT22;40072;50.958;3.592;2022-10-14T01:52:54;14.40;99.90
54168;DHT22;40072;50.958;3.592;2022-10-14T01:55:25;14.40;99.90
54168;DHT22;40072;50.958;3.592;2022-10-14T01:57:53;14.40;99.90
54168;DHT22;40072;50.958;3.592;2022-10-14T02:00:20;14.40;99.90
54168;DHT22;40072;50.958;3.592;2022-10-14T02:02:46;14.40;99.90
54168;DHT22;40072;50.958;3.592;2022-10-14T02:05:35;14.40;99.90
54168;DHT22;40072;50.958;3.592;2022-10-14T02:11:11;14.30;99.90
54168;DHT22;40072;50.958;3.592;2022-10-14T02:16:31;14.30;99.90
54168;DHT22;40072;50.958;3.592;2022-10-14T02:21:43;14.30;99.90
54168;DHT22;40072;50.958;3.592;2022-10-14T02:24:30;14.30;99.90
54168;DHT22;40072;50.958;3.592;2022-10-14T02:27:00;14.30;99.90
54168;DHT22;40072;50.958;3.592;2022-10-14T02:29:29;14.40;99.90
54168;DHT22;40072;50.958;3.592;2022-10-14T02:31:56;14.40;99.90
54168;DHT22;40072;50.958;3.592;2022-10-14T02:34:25;14.40;99.90
54168;DHT22;40072;50.958;3.592;2022-10-14T02:36:52;14.30;99.90
54168;DHT22;40072;50.958;3.592;2022-10-14T02:39:30;14.30;99.90
54168;DHT22;40072;50.958;3.592;2022-10-14T02:41:57;14.40;99.90
54168;DHT22;40072;50.958;3.592;2022-10-14T02:44:22;14.40;99.90
54168;DHT22;40072;50.958;3.592;2022-10-14T02:46:48;14.40;99.90
54168;DHT22;40072;50.958;3.592;2022-10-14T02:49:15;14.30;99.90
54168;DHT22;40072;50.958;3.592;2022-10-14T02:51:41;14.40;99.90
54168;DHT22;40072;50.958;3.592;2022-10-14T02:54:06;14.40;99.90
54168;DHT22;40072;50.958;3.592;2022-10-14T02:56:32;14.40;99.90
54168;DHT22;40072;50.958;3.592;2022-10-14T02:58:58;14.40;99.90
54168;DHT22;40072;50.958;3.592;2022-10-14T03:01:24;14.40;99.90
54168;DHT22;40072;50.958;3.592;2022-10-14T03:03:49;14.40;99.90
54168;DHT22;40072;50.958;3.592;2022-10-14T03:06:15;14.40;99.90
54168;DHT22;40072;50.958;3.592;2022-10-14T03:08:40;14.50;99.90
54168;DHT22;40072;50.958;3.592;2022-10-14T03:11:06;14.50;99.90
54168;DHT22;40072;50.958;3.592;2022-10-14T03:13:32;14.40;99.90
54168;DHT22;40072;50.958;3.592;2022-10-14T03:15:58;14.40;99.90
54168;DHT22;40072;50.958;3.592;2022-10-14T03:18:23;14.40;99.90
54168;DHT22;40072;50.958;3.592;2022-10-14T03:20:49;14.40;99.90
54168;DHT22;40072;50.958;3.592;2022-10-14T03:23:15;14.30;99.90
54168;DHT22;40072;50.958;3.592;2022-10-14T03:25:43;14.30;99.90
54168;DHT22;40072;50.958;3.592;2022-10-14T03:28:08;14.30;99.90
54168;DHT22;40072;50.958;3.592;2022-10-14T03:30:34;14.30;99.90
54168;DHT22;40072;50.958;3.592;2022-10-14T03:33:00;14.30;99.90
54168;DHT22;40072;50.958;3.592;2022-10-14T03:35:25;14.30;99.90
54168;DHT22;40072;50.958;3.592;2022-10-14T03:37:51;14.30;99.90
54168;DHT22;40072;50.958;3.592;2022-10-14T03:40:19;14.30;99.90
54168;DHT22;40072;50.958;3.592;2022-10-14T03:42:44;14.30;99.90
54168;DHT22;40072;50.958;3.592;2022-10-14T03:45:10;14.30;99.90
54168;DHT22;40072;50.958;3.592;2022-10-14T03:47:36;14.20;99.90
54168;DHT22;40072;50.958;3.592;2022-10-14T03:50:01;14.20;99.90
54168;DHT22;40072;50.958;3.592;2022-10-14T03:52:29;14.20;99.90
54168;DHT22;40072;50.958;3.592;2022-10-14T03:54:55;14.20;99.90
54168;DHT22;40072;50.958;3.592;2022-10-14T03:57:21;14.20;99.90
54168;DHT22;40072;50.958;3.592;2022-10-14T03:59:46;14.20;99.90
54168;DHT22;40072;50.958;3.592;2022-10-14T04:02:12;14.20;99.90
54168;DHT22;40072;50.958;3.592;2022-10-14T04:04:38;14.20;99.90
54168;DHT22;40072;50.958;3.592;2022-10-14T04:07:03;14.20;99.90
54168;DHT22;40072;50.958;3.592;2022-10-14T04:09:29;14.20;99.90
54168;DHT22;40072;50.958;3.592;2022-10-14T04:11:56;14.20;99.90
54168;DHT22;40072;50.958;3.592;2022-10-14T04:14:23;14.20;99.90
54168;DHT22;40072;50.958;3.592;2022-10-14T04:16:48;14.20;99.90
54168;DHT22;40072;50.958;3.592;2022-10-14T04:19:14;14.20;99.90
54168;DHT22;40072;50.958;3.592;2022-10-14T04:21:40;14.30;99.90
54168;DHT22;40072;50.958;3.592;2022-10-14T04:24:06;14.30;99.90
54168;DHT22;40072;50.958;3.592;2022-10-14T04:26:31;14.20;99.90
54168;DHT22;40072;50.958;3.592;2022-10-14T04:28:57;14.20;99.90
54168;DHT22;40072;50.958;3.592;2022-10-14T04:31:22;14.30;99.90
54168;DHT22;40072;50.958;3.592;2022-10-14T04:33:48;14.30;99.90
54168;DHT22;40072;50.958;3.592;2022-10-14T04:36:14;14.30;99.90
54168;DHT22;40072;50.958;3.592;2022-10-14T04:38:40;14.30;99.90
54168;DHT22;40072;50.958;3.592;2022-10-14T04:41:05;14.30;99.90
54168;DHT22;40072;50.958;3.592;2022-10-14T04:43:31;14.30;99.90
54168;DHT22;40072;50.958;3.592;2022-10-14T04:45:56;14.30;99.90
54168;DHT22;40072;50.958;3.592;2022-10-14T04:48:22;14.30;99.90
54168;DHT22;40072;50.958;3.592;2022-10-14T04:50:52;14.30;99.90
54168;DHT22;40072;50.958;3.592;2022-10-14T04:53:19;14.30;99.90
54168;DHT22;40072;50.958;3.592;2022-10-14T04:55:45;14.30;99.90
54168;DHT22;40072;50.958;3.592;2022-10-14T04:58:11;14.30;99.90
54168;DHT22;40072;50.958;3.592;2022-10-14T05:00:37;14.30;99.90
54168;DHT22;40072;50.958;3.592;2022-10-14T05:03:03;14.30;99.90
54168;DHT22;40072;50.958;3.592;2022-10-14T05:05:29;14.30;99.90
54168;DHT22;40072;50.958;3.592;2022-10-14T05:07:55;14.30;99.90
54168;DHT22;40072;50.958;3.592;2022-10-14T05:10:20;14.30;99.90
54168;DHT22;40072;50.958;3.592;2022-10-14T05:12:47;14.30;99.90
54168;DHT22;40072;50.958;3.592;2022-10-14T05:15:13;14.30;99.90
54168;DHT22;40072;50.958;3.592;2022-10-14T05:17:38;14.30;99.90
54168;DHT22;40072;50.958;3.592;2022-10-14T05:20:05;14.40;99.90
54168;DHT22;40072;50.958;3.592;2022-10-14T05:22:31;14.30;99.90
54168;DHT22;40072;50.958;3.592;2022-10-14T05:24:56;14.30;99.90
54168;DHT22;40072;50.958;3.592;2022-10-14T05:27:22;14.30;99.90
54168;DHT22;40072;50.958;3.592;2022-10-14T05:29:48;14.30;99.90
54168;DHT22;40072;50.958;3.592;2022-10-14T05:32:14;14.40;99.90
54168;DHT22;40072;50.958;3.592;2022-10-14T05:34:40;14.40;99.90
54168;DHT22;40072;50.958;3.592;2022-10-14T05:37:06;14.40;99.90
54168;DHT22;40072;50.958;3.592;2022-10-14T05:39:32;14.30;99.90
54168;DHT22;40072;50.958;3.592;2022-10-14T05:41:57;14.30;99.90
54168;DHT22;40072;50.958;3.592;2022-10-14T05:44:23;14.30;99.90
54168;DHT22;40072;50.958;3.592;2022-10-14T05:46:49;14.20;99.90
54168;DHT22;40072;50.958;3.592;2022-10-14T05:49:14;14.30;99.90
54168;DHT22;40072;50.958;3.592;2022-10-14T05:51:40;14.30;99.90
54168;DHT22;40072;50.958;3.592;2022-10-14T05:54:06;14.30;99.90
54168;DHT22;40072;50.958;3.592;2022-10-14T05:56:31;14.20;99.90
54168;DHT22;40072;50.958;3.592;2022-10-14T05:58:57;14.20;99.90
54168;DHT22;40072;50.958;3.592;2022-10-14T06:01:22;14.20;99.90
54168;DHT22;40072;50.958;3.592;2022-10-14T06:03:51;14.20;99.90
54168;DHT22;40072;50.958;3.592;2022-10-14T06:06:17;14.20;99.90
54168;DHT22;40072;50.958;3.592;2022-10-14T06:08:43;14.20;99.90
54168;DHT22;40072;50.958;3.592;2022-10-14T06:11:10;14.20;99.90
54168;DHT22;40072;50.958;3.592;2022-10-14T06:13:36;14.20;99.90
54168;DHT22;40072;50.958;3.592;2022-10-14T06:16:06;14.20;99.90
54168;DHT22;40072;50.958;3.592;2022-10-14T06:18:36;14.20;99.90
54168;DHT22;40072;50.958;3.592;2022-10-14T06:21:02;14.20;99.90
54168;DHT22;40072;50.958;3.592;2022-10-14T06:23:28;14.20;99.90
54168;DHT22;40072;50.958;3.592;2022-10-14T06:25:54;14.20;99.90
54168;DHT22;40072;50.958;3.592;2022-10-14T06:28:20;14.20;99.90
54168;DHT22;40072;50.958;3.592;2022-10-14T06:30:53;14.20;99.90
54168;DHT22;40072;50.958;3.592;2022-10-14T06:33:19;14.20;99.90
54168;DHT22;40072;50.958;3.592;2022-10-14T06:35:45;14.20;99.90
54168;DHT22;40072;50.958;3.592;2022-10-14T06:38:11;14.10;99.90
54168;DHT22;40072;50.958;3.592;2022-10-14T06:40:37;14.10;99.90
54168;DHT22;40072;50.958;3.592;2022-10-14T06:43:03;14.10;99.90
54168;DHT22;40072;50.958;3.592;2022-10-14T06:45:29;14.20;99.90
54168;DHT22;40072;50.958;3.592;2022-10-14T06:47:55;14.20;99.90
54168;DHT22;40072;50.958;3.592;2022-10-14T06:50:21;14.20;99.90
54168;DHT22;40072;50.958;3.592;2022-10-14T06:52:47;14.20;99.90
54168;DHT22;40072;50.958;3.592;2022-10-14T06:55:13;14.10;99.90
54168;DHT22;40072;50.958;3.592;2022-10-14T06:57:39;14.20;99.90
54168;DHT22;40072;50.958;3.592;2022-10-14T07:00:06;14.30;99.90
54168;DHT22;40072;50.958;3.592;2022-10-14T07:02:31;14.30;99.90
54168;DHT22;40072;50.958;3.592;2022-10-14T07:04:57;14.30;99.90
54168;DHT22;40072;50.958;3.592;2022-10-14T07:07:23;14.30;99.90
54168;DHT22;40072;50.958;3.592;2022-10-14T07:09:49;14.40;99.90
54168;DHT22;40072;50.958;3.592;2022-10-14T07:12:14;14.30;99.90
54168;DHT22;40072;50.958;3.592;2022-10-14T07:14:40;14.30;99.90
54168;DHT22;40072;50.958;3.592;2022-10-14T07:17:07;14.30;99.90
54168;DHT22;40072;50.958;3.592;2022-10-14T07:19:33;14.40;99.90
54168;DHT22;40072;50.958;3.592;2022-10-14T07:21:59;14.40;99.90
54168;DHT22;40072;50.958;3.592;2022-10-14T07:24:25;14.40;99.90
54168;DHT22;40072;50.958;3.592;2022-10-14T07:26:50;14.40;99.90
54168;DHT22;40072;50.958;3.592;2022-10-14T07:29:16;14.40;99.90
54168;DHT22;40072;50.958;3.592;2022-10-14T07:31:42;14.40;99.90
54168;DHT22;40072;50.958;3.592;2022-10-14T07:34:08;14.40;99.90
54168;DHT22;40072;50.958;3.592;2022-10-14T07:36:34;14.40;99.90
54168;DHT22;40072;50.958;3.592;2022-10-14T07:39:00;14.50;99.90
54168;DHT22;40072;50.958;3.592;2022-10-14T07:41:26;14.50;99.90
54168;DHT22;40072;50.958;3.592;2022-10-14T07:44:02;14.50;99.90
54168;DHT22;40072;50.958;3.592;2022-10-14T07:46:32;14.50;99.90
54168;DHT22;40072;50.958;3.592;2022-10-14T07:49:00;14.40;99.90
54168;DHT22;40072;50.958;3.592;2022-10-14T07:51:27;14.40;99.90
54168;DHT22;40072;50.958;3.592;2022-10-14T07:53:54;14.40;99.90
54168;DHT22;40072;50.958;3.592;2022-10-14T07:56:21;14.50;99.90
54168;DHT22;40072;50.958;3.592;2022-10-14T07:58:47;14.50;99.90
54168;DHT22;40072;50.958;3.592;2022-10-14T08:01:14;14.50;99.90
54168;DHT22;40072;50.958;3.592;2022-10-14T08:03:41;14.50;99.90
54168;DHT22;40072;50.958;3.592;2022-10-14T08:06:08;14.60;99.90
54168;DHT22;40072;50.958;3.592;2022-10-14T08:08:34;14.60;99.90
54168;DHT22;40072;50.958;3.592;2022-10-14T08:11:09;14.60;99.90
54168;DHT22;40072;50.958;3.592;2022-10-14T08:13:35;14.70;99.90
54168;DHT22;40072;50.958;3.592;2022-10-14T08:16:01;14.70;99.90
54168;DHT22;40072;50.958;3.592;2022-10-14T08:18:27;14.70;99.90
54168;DHT22;40072;50.958;3.592;2022-10-14T08:20:53;14.70;99.90
54168;DHT22;40072;50.958;3.592;2022-10-14T08:23:19;14.60;99.90
54168;DHT22;40072;50.958;3.592;2022-10-14T08:25:47;14.60;99.90
54168;DHT22;40072;50.958;3.592;2022-10-14T08:28:13;14.60;99.90
54168;DHT22;40072;50.958;3.592;2022-10-14T08:30:38;14.60;99.90
54168;DHT22;40072;50.958;3.592;2022-10-14T08:33:04;14.60;99.90
54168;DHT22;40072;50.958;3.592;2022-10-14T08:35:30;14.60;99.90
54168;DHT22;40072;50.958;3.592;2022-10-14T08:38:00;14.70;99.90
54168;DHT22;40072;50.958;3.592;2022-10-14T08:40:27;14.70;99.90
54168;DHT22;40072;50.958;3.592;2022-10-14T08:45:32;14.70;99.90
54168;DHT22;40072;50.958;3.592;2022-10-14T08:48:03;14.70;99.90
54168;DHT22;40072;50.958;3.592;2022-10-14T08:50:40;14.70;99.90
54168;DHT22;40072;50.958;3.592;2022-10-14T08:53:17;14.60;99.90
54168;DHT22;40072;50.958;3.592;2022-10-14T08:55:50;14.70;99.90
54168;DHT22;40072;50.958;3.592;2022-10-14T08:58:30;14.70;99.90
54168;DHT22;40072;50.958;3.592;2022-10-14T09:01:01;14.70;99.90
54168;DHT22;40072;50.958;3.592;2022-10-14T09:03:30;14.70;99.90
54168;DHT22;40072;50.958;3.592;2022-10-14T09:06:02;14.70;99.90
54168;DHT22;40072;50.958;3.592;2022-10-14T09:08:42;14.90;99.90
54168;DHT22;40072;50.958;3.592;2022-10-14T09:11:12;15.00;99.90
54168;DHT22;40072;50.958;3.592;2022-10-14T09:13:41;14.90;99.90
54168;DHT22;40072;50.958;3.592;2022-10-14T09:16:23;15.00;99.90
54168;DHT22;40072;50.958;3.592;2022-10-14T09:19:00;15.10;99.90
54168;DHT22;40072;50.958;3.592;2022-10-14T09:21:37;15.10;99.90
54168;DHT22;40072;50.958;3.592;2022-10-14T09:24:17;15.40;99.90
54168;DHT22;40072;50.958;3.592;2022-10-14T09:26:50;15.60;99.90
54168;DHT22;40072;50.958;3.592;2022-10-14T09:29:30;15.70;99.90
54168;DHT22;40072;50.958;3.592;2022-10-14T09:32:08;15.80;99.90
54168;DHT22;40072;50.958;3.592;2022-10-14T09:34:45;15.70;99.90
54168;DHT22;40072;50.958;3.592;2022-10-14T09:37:31;15.60;99.90
54168;DHT22;40072;50.958;3.592;2022-10-14T09:40:04;15.90;99.90
54168;DHT22;40072;50.958;3.592;2022-10-14T09:42:47;15.80;99.90
54168;DHT22;40072;50.958;3.592;2022-10-14T09:45:15;15.80;99.90
54168;DHT22;40072;50.958;3.592;2022-10-14T09:47:57;15.70;99.90
54168;DHT22;40072;50.958;3.592;2022-10-14T09:50:38;15.60;99.90
54168;DHT22;40072;50.958;3.592;2022-10-14T09:53:17;15.60;99.90
54168;DHT22;40072;50.958;3.592;2022-10-14T09:55:48;15.50;99.90
54168;DHT22;40072;50.958;3.592;2022-10-14T09:58:17;15.50;99.90
54168;DHT22;40072;50.958;3.592;2022-10-14T10:00:44;15.70;99.90
54168;DHT22;40072;50.958;3.592;2022-10-14T10:03:33;15.90;99.90
54168;DHT22;40072;50.958;3.592;2022-10-14T10:06:04;15.90;99.90
54168;DHT22;40072;50.958;3.592;2022-10-14T10:08:30;15.90;99.90
54168;DHT22;40072;50.958;3.592;2022-10-14T10:11:01;15.90;99.90
54168;DHT22;40072;50.958;3.592;2022-10-14T10:13:45;16.10;99.90
54168;DHT22;40072;50.958;3.592;2022-10-14T10:16:23;16.20;99.90
54168;DHT22;40072;50.958;3.592;2022-10-14T10:18:51;16.40;99.90
54168;DHT22;40072;50.958;3.592;2022-10-14T10:21:21;16.70;99.90
54168;DHT22;40072;50.958;3.592;2022-10-14T10:24:02;16.80;99.90
54168;DHT22;40072;50.958;3.592;2022-10-14T10:26:33;16.70;99.90
54168;DHT22;40072;50.958;3.592;2022-10-14T10:29:01;16.60;99.90
54168;DHT22;40072;50.958;3.592;2022-10-14T10:31:49;16.60;99.90
54168;DHT22;40072;50.958;3.592;2022-10-14T10:34:53;16.70;99.90
54168;DHT22;40072;50.958;3.592;2022-10-14T10:37:32;17.20;99.90
54168;DHT22;40072;50.958;3.592;2022-10-14T10:40:22;17.20;99.90
54168;DHT22;40072;50.958;3.592;2022-10-14T10:45:58;17.70;99.90
54168;DHT22;40072;50.958;3.592;2022-10-14T10:49:00;17.90;99.90
54168;DHT22;40072;50.958;3.592;2022-10-14T10:51:44;18.70;99.90
54168;DHT22;40072;50.958;3.592;2022-10-14T10:56:51;19.00;99.90
54168;DHT22;40072;50.958;3.592;2022-10-14T10:59:44;18.90;99.90
54168;DHT22;40072;50.958;3.592;2022-10-14T11:02:15;18.70;99.90
54168;DHT22;40072;50.958;3.592;2022-10-14T11:04:52;19.10;99.90
54168;DHT22;40072;50.958;3.592;2022-10-14T11:11:13;19.40;99.90
54168;DHT22;40072;50.958;3.592;2022-10-14T11:14:23;19.30;99.90
54168;DHT22;40072;50.958;3.592;2022-10-14T11:17:02;19.10;99.90
54168;DHT22;40072;50.958;3.592;2022-10-14T11:22:37;18.70;99.90
54168;DHT22;40072;50.958;3.592;2022-10-14T11:30:24;18.70;99.90
54168;DHT22;40072;50.958;3.592;2022-10-14T11:33:59;19.20;99.90
54168;DHT22;40072;50.958;3.592;2022-10-14T11:36:08;19.20;99.90
54168;DHT22;40072;50.958;3.592;2022-10-14T11:46:46;20.90;99.90
54168;DHT22;40072;50.958;3.592;2022-10-14T11:49:33;21.10;99.90
54168;DHT22;40072;50.958;3.592;2022-10-14T11:52:09;22.10;99.90
54168;DHT22;40072;50.958;3.592;2022-10-14T11:54:52;21.70;99.90
54168;DHT22;40072;50.958;3.592;2022-10-14T11:57:39;20.80;99.90
54168;DHT22;40072;50.958;3.592;2022-10-14T12:00:11;20.30;99.90
54168;DHT22;40072;50.958;3.592;2022-10-14T12:02:54;20.10;99.90
54168;DHT22;40072;50.958;3.592;2022-10-14T12:05:44;20.30;99.90
54168;DHT22;40072;50.958;3.592;2022-10-14T12:11:36;20.10;99.90
54168;DHT22;40072;50.958;3.592;2022-10-14T12:14:28;19.80;99.90
54168;DHT22;40072;50.958;3.592;2022-10-14T12:16:57;19.50;99.90
54168;DHT22;40072;50.958;3.592;2022-10-14T12:19:26;19.20;99.90
54168;DHT22;40072;50.958;3.592;2022-10-14T12:24:49;19.60;99.90
54168;DHT22;40072;50.958;3.592;2022-10-14T12:27:17;19.30;99.90
54168;DHT22;40072;50.958;3.592;2022-10-14T12:29:49;19.30;99.90
54168;DHT22;40072;50.958;3.592;2022-10-14T12:34:52;19.10;99.90
54168;DHT22;40072;50.958;3.592;2022-10-14T12:40:23;19.50;99.90
54168;DHT22;40072;50.958;3.592;2022-10-14T12:43:01;19.80;99.90
54168;DHT22;40072;50.958;3.592;2022-10-14T12:45:30;20.20;99.90
54168;DHT22;40072;50.958;3.592;2022-10-14T12:48:33;20.30;99.90
54168;DHT22;40072;50.958;3.592;2022-10-14T12:51:15;20.00;99.90
54168;DHT22;40072;50.958;3.592;2022-10-14T12:53:49;19.70;99.90
54168;DHT22;40072;50.958;3.592;2022-10-14T12:56:30;19.80;99.90
54168;DHT22;40072;50.958;3.592;2022-10-14T12:58:58;19.50;99.90
54168;DHT22;40072;50.958;3.592;2022-10-14T13:01:28;19.80;99.90
54168;DHT22;40072;50.958;3.592;2022-10-14T13:04:04;19.80;99.90
54168;DHT22;40072;50.958;3.592;2022-10-14T13:11:39;19.80;99.90
54168;DHT22;40072;50.958;3.592;2022-10-14T13:22:01;19.80;99.90
54168;DHT22;40072;50.958;3.592;2022-10-14T13:24:29;19.60;99.90
54168;DHT22;40072;50.958;3.592;2022-10-14T13:27:01;19.40;99.90
54168;DHT22;40072;50.958;3.592;2022-10-14T13:32:29;19.10;99.90
54168;DHT22;40072;50.958;3.592;2022-10-14T13:37:37;18.70;99.90
54168;DHT22;40072;50.958;3.592;2022-10-14T13:42:54;18.50;99.90
54168;DHT22;40072;50.958;3.592;2022-10-14T13:45:28;18.40;99.90
54168;DHT22;40072;50.958;3.592;2022-10-14T13:47:55;18.40;99.90
54168;DHT22;40072;50.958;3.592;2022-10-14T13:50:30;18.40;99.90
54168;DHT22;40072;50.958;3.592;2022-10-14T13:53:03;18.40;99.90
54168;DHT22;40072;50.958;3.592;2022-10-14T13:55:29;18.40;99.90
54168;DHT22;40072;50.958;3.592;2022-10-14T13:58:10;18.20;99.90
54168;DHT22;40072;50.958;3.592;2022-10-14T14:00:48;18.30;99.90
54168;DHT22;40072;50.958;3.592;2022-10-14T14:03:26;18.10;99.90
54168;DHT22;40072;50.958;3.592;2022-10-14T14:05:53;18.20;99.90
54168;DHT22;40072;50.958;3.592;2022-10-14T14:08:31;18.40;99.90
54168;DHT22;40072;50.958;3.592;2022-10-14T14:11:00;18.30;99.90
54168;DHT22;40072;50.958;3.592;2022-10-14T14:13:31;18.20;99.90
54168;DHT22;40072;50.958;3.592;2022-10-14T14:15:58;18.50;99.90
54168;DHT22;40072;50.958;3.592;2022-10-14T14:18:32;18.20;99.90
54168;DHT22;40072;50.958;3.592;2022-10-14T14:20:59;18.10;99.90
54168;DHT22;40072;50.958;3.592;2022-10-14T14:23:25;18.00;99.90
54168;DHT22;40072;50.958;3.592;2022-10-14T14:25:51;18.10;99.90
54168;DHT22;40072;50.958;3.592;2022-10-14T14:28:18;18.20;99.90
54168;DHT22;40072;50.958;3.592;2022-10-14T14:30:54;18.30;99.90
54168;DHT22;40072;50.958;3.592;2022-10-14T14:33:28;18.40;99.90
54168;DHT22;40072;50.958;3.592;2022-10-14T14:35:59;18.40;99.90
54168;DHT22;40072;50.958;3.592;2022-10-14T14:38:29;18.30;99.90
54168;DHT22;40072;50.958;3.592;2022-10-14T14:41:11;18.30;99.90
54168;DHT22;40072;50.958;3.592;2022-10-14T14:43:39;18.20;99.90
54168;DHT22;40072;50.958;3.592;2022-10-14T14:46:05;18.10;99.90
54168;DHT22;40072;50.958;3.592;2022-10-14T14:48:33;18.20;99.90
54168;DHT22;40072;50.958;3.592;2022-10-14T14:51:00;18.30;99.90
54168;DHT22;40072;50.958;3.592;2022-10-14T14:53:26;18.40;99.90
54168;DHT22;40072;50.958;3.592;2022-10-14T15:00:58;18.00;99.90
54168;DHT22;40072;50.958;3.592;2022-10-14T15:03:26;18.20;99.90
54168;DHT22;40072;50.958;3.592;2022-10-14T15:06:01;18.30;99.90
54168;DHT22;40072;50.958;3.592;2022-10-14T15:08:30;18.40;99.90
54168;DHT22;40072;50.958;3.592;2022-10-14T15:10:58;18.10;99.90
54168;DHT22;40072;50.958;3.592;2022-10-14T15:15:54;18.20;99.90
54168;DHT22;40072;50.958;3.592;2022-10-14T15:18:22;18.20;99.90
54168;DHT22;40072;50.958;3.592;2022-10-14T15:20:49;18.00;99.90
54168;DHT22;40072;50.958;3.592;2022-10-14T15:26:17;18.20;99.90
54168;DHT22;40072;50.958;3.592;2022-10-14T15:28:46;18.20;99.90
54168;DHT22;40072;50.958;3.592;2022-10-14T15:31:15;18.20;99.90
54168;DHT22;40072;50.958;3.592;2022-10-14T15:33:40;18.10;99.90
54168;DHT22;40072;50.958;3.592;2022-10-14T15:36:09;18.10;99.90
54168;DHT22;40072;50.958;3.592;2022-10-14T15:38:36;18.10;99.90
54168;DHT22;40072;50.958;3.592;2022-10-14T15:41:02;18.20;99.90
54168;DHT22;40072;50.958;3.592;2022-10-14T15:43:28;18.40;99.90
54168;DHT22;40072;50.958;3.592;2022-10-14T15:45:55;18.30;99.90
54168;DHT22;40072;50.958;3.592;2022-10-14T15:48:50;18.30;99.90
54168;DHT22;40072;50.958;3.592;2022-10-14T15:51:18;18.30;99.90
54168;DHT22;40072;50.958;3.592;2022-10-14T15:53:44;18.20;99.90
54168;DHT22;40072;50.958;3.592;2022-10-14T15:56:10;18.00;99.90
54168;DHT22;40072;50.958;3.592;2022-10-14T15:58:36;17.80;99.90
54168;DHT22;40072;50.958;3.592;2022-10-14T16:01:02;17.80;99.90
54168;DHT22;40072;50.958;3.592;2022-10-14T16:03:29;17.90;99.90
54168;DHT22;40072;50.958;3.592;2022-10-14T16:05:56;17.70;99.90
54168;DHT22;40072;50.958;3.592;2022-10-14T16:08:22;17.60;99.90
54168;DHT22;40072;50.958;3.592;2022-10-14T16:10:47;17.60;99.90
54168;DHT22;40072;50.958;3.592;2022-10-14T16:13:14;17.50;99.90
54168;DHT22;40072;50.958;3.592;2022-10-14T16:15:58;17.60;99.90
54168;DHT22;40072;50.958;3.592;2022-10-14T16:18:24;17.70;99.90
54168;DHT22;40072;50.958;3.592;2022-10-14T16:20:50;17.50;99.90
54168;DHT22;40072;50.958;3.592;2022-10-14T16:23:17;17.70;99.90
54168;DHT22;40072;50.958;3.592;2022-10-14T16:25:45;17.60;99.90
54168;DHT22;40072;50.958;3.592;2022-10-14T16:28:11;17.50;99.90
54168;DHT22;40072;50.958;3.592;2022-10-14T16:30:42;17.40;99.90
54168;DHT22;40072;50.958;3.592;2022-10-14T16:33:13;17.30;99.90
54168;DHT22;40072;50.958;3.592;2022-10-14T16:35:43;17.20;99.90
54168;DHT22;40072;50.958;3.592;2022-10-14T16:38:11;17.00;99.90
54168;DHT22;40072;50.958;3.592;2022-10-14T16:40:37;16.80;99.90
54168;DHT22;40072;50.958;3.592;2022-10-14T16:43:03;16.60;99.90
54168;DHT22;40072;50.958;3.592;2022-10-14T16:45:29;16.50;99.90
54168;DHT22;40072;50.958;3.592;2022-10-14T16:47:55;16.30;99.90
54168;DHT22;40072;50.958;3.592;2022-10-14T16:50:21;16.30;99.90
54168;DHT22;40072;50.958;3.592;2022-10-14T16:52:47;16.20;99.90
54168;DHT22;40072;50.958;3.592;2022-10-14T16:55:32;16.10;99.90
54168;DHT22;40072;50.958;3.592;2022-10-14T16:57:58;16.00;99.90
54168;DHT22;40072;50.958;3.592;2022-10-14T17:00:23;15.90;99.90
54168;DHT22;40072;50.958;3.592;2022-10-14T17:02:49;16.00;99.90
54168;DHT22;40072;50.958;3.592;2022-10-14T17:05:15;15.90;99.90
54168;DHT22;40072;50.958;3.592;2022-10-14T17:07:40;15.80;99.90
54168;DHT22;40072;50.958;3.592;2022-10-14T17:10:08;15.80;99.90
54168;DHT22;40072;50.958;3.592;2022-10-14T17:12:34;15.80;99.90
54168;DHT22;40072;50.958;3.592;2022-10-14T17:15:00;15.60;99.90
54168;DHT22;40072;50.958;3.592;2022-10-14T17:17:25;15.30;99.90
54168;DHT22;40072;50.958;3.592;2022-10-14T17:19:51;15.20;99.90
54168;DHT22;40072;50.958;3.592;2022-10-14T17:22:18;15.10;99.90
54168;DHT22;40072;50.958;3.592;2022-10-14T17:24:45;15.20;99.90
54168;DHT22;40072;50.958;3.592;2022-10-14T17:27:11;15.20;99.90
54168;DHT22;40072;50.958;3.592;2022-10-14T17:29:37;15.20;99.90
54168;DHT22;40072;50.958;3.592;2022-10-14T17:32:02;15.10;99.90
54168;DHT22;40072;50.958;3.592;2022-10-14T17:34:29;15.10;99.90